Time;durP1;ratioP1;P1;durP2;ratioP2;P2;SDS_P1;SDS_P2;PMS_P1;PMS_P2;Temp;Humidity;BMP_temperature;BMP_pressure;BME280_temperature;BME280_humidity;BME280_pressure;Samples;Min_cycle;Max_cycle;Signal;HPM_P1;HPM_P2
2022/04/26 03:36:41;;;;;;;45.70;27.77;;;8.30;99.90;;;;;;5059558;28;20523;-84
2022/04/26 03:39:07;;;;;;;51.55;30.05;;;8.20;99.90;;;;;;5041284;28;20495;-83
2022/04/26 03:41:34;;;;;;;39.65;26.67;;;8.20;99.90;;;;;;5041609;28;20039;-83
2022/04/26 03:44:00;;;;;;;41.90;26.63;;;8.20;99.90;;;;;;5058423;28;20029;-85
2022/04/26 03:46:26;;;;;;;44.08;27.45;;;8.20;99.90;;;;;;5060299;28;20063;-85
2022/04/26 03:48:52;;;;;;;40.38;26.48;;;8.10;99.90;;;;;;5041898;28;20041;-85
2022/04/26 03:51:18;;;;;;;40.78;26.25;;;8.10;99.90;;;;;;5042309;28;20435;-84
2022/04/26 03:53:47;;;;;;;43.70;27.60;;;8.10;99.90;;;;;;5058452;28;20021;-85
2022/04/26 03:56:12;;;;;;;39.92;26.88;;;8.00;99.90;;;;;;5059195;28;20116;-85
2022/04/26 03:58:38;;;;;;;41.35;25.83;;;8.00;99.90;;;;;;5040908;28;20104;-86
2022/04/26 04:01:04;;;;;;;45.03;25.85;;;8.00;99.90;;;;;;5060254;28;20363;-84
2022/04/26 04:03:30;;;;;;;47.65;27.88;;;8.00;99.90;;;;;;5041648;28;20025;-84
2022/04/26 04:05:56;;;;;;;45.50;27.40;;;8.00;99.90;;;;;;5060539;28;20080;-83
2022/04/26 04:08:22;;;;;;;43.35;27.50;;;8.00;99.90;;;;;;5061338;28;20064;-82
2022/04/26 04:10:47;;;;;;;43.65;27.63;;;8.00;99.90;;;;;;5065717;28;20024;-85
2022/04/26 04:13:13;;;;;;;42.42;26.13;;;8.00;99.90;;;;;;5082288;28;20024;-85
2022/04/26 04:15:39;;;;;;;44.22;27.08;;;8.00;99.90;;;;;;5060811;28;20029;-84
2022/04/26 04:19:17;;;;;;;44.15;27.42;;;7.90;99.90;;;;;;5060517;28;20028;-85
2022/04/26 04:20:52;;;;;;;42.78;24.70;;;7.90;99.90;;;;;;5077822;28;20058;-83
2022/04/26 04:23:18;;;;;;;38.45;25.13;;;7.90;99.90;;;;;;5078309;28;20051;-85
2022/04/26 04:25:43;;;;;;;37.28;25.20;;;7.90;99.90;;;;;;5077874;28;20020;-86
2022/04/26 04:28:09;;;;;;;36.65;23.85;;;7.90;99.90;;;;;;5059582;28;20487;-84
2022/04/26 04:30:35;;;;;;;36.28;23.15;;;7.80;99.90;;;;;;5077446;28;20024;-82
2022/04/26 04:33:00;;;;;;;40.22;24.92;;;7.80;99.90;;;;;;5077497;28;20040;-81
2022/04/26 04:35:26;;;;;;;40.35;25.55;;;7.90;99.90;;;;;;5041895;28;20072;-83
2022/04/26 04:37:51;;;;;;;41.38;25.42;;;7.90;99.90;;;;;;5077332;28;20027;-83
2022/04/26 04:40:17;;;;;;;37.97;23.48;;;7.80;99.90;;;;;;5077312;28;20017;-84
2022/04/26 04:42:45;;;;;;;37.67;22.50;;;7.80;99.90;;;;;;5059630;28;20017;-83
2022/04/26 04:45:10;;;;;;;34.92;21.92;;;7.80;99.90;;;;;;5077194;28;20039;-85
2022/04/26 04:47:36;;;;;;;38.35;24.15;;;7.80;99.90;;;;;;5059768;28;20036;-85
2022/04/26 04:50:02;;;;;;;78.95;40.60;;;7.80;99.90;;;;;;5059460;28;20125;-84
2022/04/26 04:52:27;;;;;;;39.70;23.55;;;7.80;99.90;;;;;;5060054;28;20041;-84
2022/04/26 04:54:53;;;;;;;58.35;34.83;;;7.80;99.90;;;;;;5076761;28;20040;-83
2022/04/26 04:57:18;;;;;;;58.78;33.20;;;7.80;99.90;;;;;;5078356;28;20035;-85
2022/04/26 04:59:44;;;;;;;55.58;32.15;;;7.70;99.90;;;;;;5059845;28;20031;-85
2022/04/26 05:02:10;;;;;;;37.00;23.52;;;7.70;99.90;;;;;;5077880;28;20160;-84
2022/04/26 05:04:36;;;;;;;46.25;25.08;;;7.70;99.90;;;;;;5060074;28;20036;-84
2022/04/26 05:07:03;;;;;;;35.10;22.17;;;7.70;99.90;;;;;;5077506;28;20417;-83
2022/04/26 05:09:28;;;;;;;32.72;20.02;;;7.80;99.90;;;;;;5071608;28;20025;-85
2022/04/26 05:11:54;;;;;;;30.83;17.58;;;7.80;99.90;;;;;;5039173;28;20560;-84
2022/04/26 05:14:20;;;;;;;31.02;17.45;;;7.70;99.90;;;;;;5039383;28;20025;-82
2022/04/26 05:16:45;;;;;;;46.78;17.38;;;7.60;99.90;;;;;;5057632;28;20100;-82
2022/04/26 05:19:11;;;;;;;24.95;14.68;;;7.60;99.90;;;;;;5039286;28;20025;-85
2022/04/26 05:21:37;;;;;;;24.00;15.48;;;7.50;99.90;;;;;;5057370;28;20024;-84
2022/04/26 05:26:47;;;;;;;28.20;17.02;;;7.50;99.90;;;;;;5057745;28;20082;-86
2022/04/26 05:29:12;;;;;;;24.90;15.60;;;7.50;99.90;;;;;;5057689;28;20419;-85
2022/04/26 05:31:38;;;;;;;26.42;15.55;;;7.50;99.90;;;;;;5039399;28;20025;-82
2022/04/26 05:34:04;;;;;;;21.05;13.77;;;7.60;99.90;;;;;;5057400;28;20113;-82
2022/04/26 05:36:29;;;;;;;23.80;13.57;;;7.50;99.90;;;;;;5057980;28;20036;-83
2022/04/26 05:38:55;;;;;;;25.10;13.93;;;7.50;99.90;;;;;;5039565;28;20480;-82
2022/04/26 05:41:20;;;;;;;24.58;14.55;;;7.50;99.90;;;;;;5057121;28;20029;-83
2022/04/26 05:43:46;;;;;;;19.30;13.40;;;7.50;99.90;;;;;;5056815;28;20040;-85
2022/04/26 05:46:12;;;;;;;23.90;14.00;;;7.50;99.90;;;;;;5058258;28;20055;-86
2022/04/26 05:48:40;;;;;;;21.40;13.55;;;7.60;99.90;;;;;;5039083;28;20024;-86
2022/04/26 05:51:06;;;;;;;22.80;14.23;;;7.50;99.90;;;;;;5040208;28;20047;-85
2022/04/26 05:53:32;;;;;;;20.90;14.52;;;7.60;99.90;;;;;;5043489;28;20132;-84
2022/04/26 05:55:57;;;;;;;20.65;13.75;;;7.60;99.90;;;;;;5043321;28;20048;-85
2022/04/26 05:58:23;;;;;;;23.90;13.35;;;7.60;99.90;;;;;;5058799;28;20029;-83
2022/04/26 06:00:49;;;;;;;22.40;13.75;;;7.60;99.90;;;;;;5059345;28;20028;-83
2022/04/26 06:03:14;;;;;;;20.50;14.02;;;7.60;99.90;;;;;;5064244;28;20017;-82
2022/04/26 06:05:41;;;;;;;22.63;13.77;;;7.60;99.90;;;;;;5063751;28;20036;-83
2022/04/26 06:08:08;;;;;;;23.45;14.05;;;7.70;99.90;;;;;;5061666;28;20032;-83
2022/04/26 06:10:36;;;;;;;27.23;13.02;;;7.70;99.90;;;;;;5071952;28;20107;-85
2022/04/26 06:13:02;;;;;;;19.15;12.73;;;7.70;99.90;;;;;;5077194;28;20488;-84
2022/04/26 06:15:28;;;;;;;20.67;12.38;;;7.70;99.90;;;;;;5077269;28;20039;-84
2022/04/26 06:17:53;;;;;;;25.95;13.50;;;7.60;99.90;;;;;;5077311;28;20020;-83
2022/04/26 06:20:22;;;;;;;19.20;12.55;;;7.70;99.90;;;;;;5077963;28;20469;-85
2022/04/26 06:22:48;;;;;;;22.98;13.05;;;7.70;99.90;;;;;;5077842;28;20028;-83
2022/04/26 06:25:14;;;;;;;22.17;14.38;;;7.70;99.90;;;;;;5083467;28;20021;-85
2022/04/26 06:27:40;;;;;;;26.80;14.02;;;7.60;99.90;;;;;;5080907;28;20037;-84
2022/04/26 06:30:06;;;;;;;23.88;14.23;;;7.60;99.90;;;;;;5059414;28;20020;-83
2022/04/26 06:32:32;;;;;;;26.40;14.43;;;7.60;99.90;;;;;;5060769;28;20098;-84
2022/04/26 06:34:57;;;;;;;21.92;13.43;;;7.70;99.90;;;;;;5078373;28;20029;-85
2022/04/26 06:37:23;;;;;;;24.40;13.02;;;7.70;99.90;;;;;;5077940;28;20421;-86
2022/04/26 06:39:53;;;;;;;31.63;14.68;;;7.80;99.90;;;;;;5077441;28;20064;-86
2022/04/26 06:42:20;;;;;;;23.35;15.13;;;7.80;99.90;;;;;;5079302;28;20072;-83
2022/04/26 06:44:45;;;;;;;26.77;15.40;;;7.90;99.90;;;;;;5078609;28;20101;-84
2022/04/26 06:47:11;;;;;;;28.23;15.45;;;7.90;99.90;;;;;;5059448;28;20028;-84
2022/04/26 06:49:37;;;;;;;30.67;15.95;;;7.90;99.90;;;;;;5059568;28;20025;-82
2022/04/26 06:52:03;;;;;;;24.25;14.30;;;8.00;99.90;;;;;;5059226;28;20031;-82
2022/04/26 06:54:28;;;;;;;25.25;15.48;;;8.00;99.90;;;;;;5076281;28;20111;-82
2022/04/26 06:56:54;;;;;;;21.67;14.02;;;8.10;99.90;;;;;;5077313;28;20080;-83
2022/04/26 06:59:20;;;;;;;27.08;15.18;;;8.30;99.90;;;;;;5077238;28;20499;-83
2022/04/26 07:01:52;;;;;;;31.10;14.88;;;8.30;99.90;;;;;;5059015;28;20048;-84
2022/04/26 07:04:18;;;;;;;28.75;15.63;;;8.50;99.90;;;;;;5058538;28;20028;-83
2022/04/26 07:06:44;;;;;;;25.17;14.13;;;8.70;99.90;;;;;;5076975;28;20017;-84
2022/04/26 07:09:09;;;;;;;25.10;15.50;;;8.80;99.90;;;;;;5056114;28;20175;-85
2022/04/26 07:11:35;;;;;;;26.48;15.52;;;8.90;99.90;;;;;;5039197;28;20029;-83
2022/04/26 07:14:00;;;;;;;32.30;15.82;;;8.90;99.90;;;;;;5055928;28;20129;-86
2022/04/26 07:16:26;;;;;;;29.85;16.60;;;8.90;99.90;;;;;;5056159;28;20075;-84
2022/04/26 07:18:52;;;;;;;34.83;18.52;;;9.00;99.90;;;;;;5041665;28;20021;-85
2022/04/26 07:21:18;;;;;;;34.45;18.55;;;9.00;99.90;;;;;;5060841;28;20397;-85
2022/04/26 07:23:44;;;;;;;30.20;17.90;;;9.10;99.90;;;;;;5060086;28;20024;-84
2022/04/26 07:26:09;;;;;;;30.40;16.83;;;9.20;99.90;;;;;;5060310;28;20021;-84
2022/04/26 07:28:35;;;;;;;30.08;17.30;;;9.40;99.90;;;;;;5060624;28;20443;-83
2022/04/26 07:31:00;;;;;;;26.83;16.40;;;9.50;99.90;;;;;;5059902;28;20047;-85
2022/04/26 07:36:10;;;;;;;27.35;15.75;;;9.80;99.90;;;;;;5059523;28;20079;-84
2022/04/26 07:38:36;;;;;;;24.83;16.58;;;9.80;99.90;;;;;;5041202;28;20021;-85
2022/04/26 07:41:02;;;;;;;26.33;18.23;;;9.90;99.90;;;;;;5059083;28;20045;-85
2022/04/26 07:43:28;;;;;;;31.65;18.63;;;10.00;99.90;;;;;;5059313;28;20032;-84
2022/04/26 07:45:53;;;;;;;33.33;21.30;;;10.00;99.90;;;;;;5059925;28;20033;-85
2022/04/26 07:48:21;;;;;;;36.67;20.85;;;9.90;99.90;;;;;;5042092;28;20040;-86
2022/04/26 07:50:49;;;;;;;36.58;22.23;;;9.80;99.90;;;;;;5059744;28;20021;-84
2022/04/26 07:53:14;;;;;;;35.15;21.45;;;9.80;99.90;;;;;;5042043;28;20029;-84
2022/04/26 07:55:40;;;;;;;34.17;21.55;;;9.90;99.90;;;;;;5060389;28;20066;-85
2022/04/26 07:58:06;;;;;;;31.48;20.27;;;9.90;99.90;;;;;;5041997;28;20556;-83
2022/04/26 08:00:31;;;;;;;27.85;19.25;;;9.80;99.90;;;;;;5059283;28;20025;-86
2022/04/26 08:02:57;;;;;;;26.33;19.30;;;9.80;99.90;;;;;;5059026;28;20040;-83
2022/04/26 08:05:23;;;;;;;37.53;20.70;;;9.80;99.90;;;;;;5059354;28;20029;-84
2022/04/26 08:07:49;;;;;;;31.25;20.60;;;10.10;99.90;;;;;;5058746;28;20081;-84
2022/04/26 08:10:15;;;;;;;27.52;19.10;;;10.50;99.90;;;;;;5072464;28;20082;-86
2022/04/26 08:12:42;;;;;;;32.42;19.25;;;10.80;99.90;;;;;;5061920;28;20145;-84
2022/04/26 08:15:10;;;;;;;26.02;17.80;;;10.90;99.90;;;;;;5080860;28;20388;-85
2022/04/26 08:17:36;;;;;;;31.05;20.63;;;10.90;99.90;;;;;;5080860;28;20021;-85
2022/04/26 08:20:06;;;;;;;36.30;20.75;;;11.00;99.90;;;;;;5081283;28;20020;-84
2022/04/26 08:22:31;;;;;;;35.90;21.88;;;10.90;99.90;;;;;;5082342;28;20107;-85
2022/04/26 08:27:41;;;;;;;33.95;20.17;;;11.00;99.90;;;;;;5088958;28;20031;-83
2022/04/26 08:30:07;;;;;;;31.77;19.98;;;11.00;99.90;;;;;;5096591;28;20052;-81
2022/04/26 08:32:47;;;;;;;28.92;18.77;;;11.10;99.90;;;;;;5078701;28;20063;-82
2022/04/26 08:35:20;;;;;;;28.05;18.70;;;11.30;99.90;;;;;;5091596;28;20054;-82
2022/04/26 08:37:46;;;;;;;31.90;20.80;;;11.30;99.90;;;;;;5080444;28;20048;-83
2022/04/26 08:40:12;;;;;;;40.90;21.73;;;11.40;99.90;;;;;;5081178;28;20028;-81
2022/04/26 08:42:40;;;;;;;38.90;23.55;;;11.50;99.90;;;;;;5086643;28;20043;-84
2022/04/26 08:45:09;;;;;;;29.45;20.25;;;11.60;99.90;;;;;;5085932;28;20107;-83
2022/04/26 08:53:05;;;;;;;29.70;20.42;;;12.30;99.90;;;;;;5079623;28;20128;-86
2022/04/26 08:55:31;;;;;;;33.30;20.13;;;12.60;99.90;;;;;;5079620;28;20068;-84
2022/04/26 08:57:59;;;;;;;34.10;20.52;;;12.90;99.90;;;;;;5079923;28;20047;-87
2022/04/26 09:00:25;;;;;;;25.17;17.80;;;13.20;99.90;;;;;;5080969;28;20021;-84
2022/04/26 09:03:02;;;;;;;28.70;20.10;;;13.40;99.90;;;;;;5061402;28;20115;-84
2022/04/26 09:05:28;;;;;;;24.27;18.27;;;13.30;99.90;;;;;;5080507;28;20173;-83
2022/04/26 09:07:54;;;;;;;23.98;16.85;;;13.20;99.90;;;;;;5082105;28;20538;-82
2022/04/26 09:10:21;;;;;;;24.63;17.73;;;13.10;99.90;;;;;;5063050;28;20033;-84
2022/04/26 09:13:09;;;;;;;24.77;16.63;;;13.20;99.90;;;;;;5081167;28;20025;-81
2022/04/26 09:15:42;;;;;;;24.27;17.90;;;13.20;99.90;;;;;;5062861;28;20074;-85
2022/04/26 09:18:29;;;;;;;27.75;18.65;;;13.20;99.90;;;;;;5080898;28;20021;-86
2022/04/26 09:21:16;;;;;;;29.05;18.05;;;13.30;99.90;;;;;;5063506;28;20054;-83
2022/04/26 09:23:44;;;;;;;23.83;16.73;;;13.30;99.90;;;;;;5082158;28;20037;-86
2022/04/26 09:26:14;;;;;;;27.20;16.00;;;13.40;99.90;;;;;;5063078;28;20027;-83
2022/04/26 09:28:50;;;;;;;19.65;14.13;;;13.60;99.90;;;;;;5061275;28;20432;-83
2022/04/26 09:31:30;;;;;;;21.27;15.77;;;13.90;99.90;;;;;;5079723;28;20021;-85
2022/04/26 09:34:06;;;;;;;25.40;16.63;;;14.00;99.90;;;;;;5062476;28;20028;-82
2022/04/26 09:36:42;;;;;;;24.30;16.05;;;14.00;99.90;;;;;;5061423;28;20020;-85
2022/04/26 09:39:09;;;;;;;19.80;14.70;;;14.00;99.90;;;;;;5062308;28;20032;-84
2022/04/26 09:41:36;;;;;;;21.73;15.10;;;14.00;99.90;;;;;;5061715;28;20025;-84
2022/04/26 09:44:06;;;;;;;21.50;15.98;;;14.10;99.90;;;;;;5080040;28;20031;-82
2022/04/26 09:46:52;;;;;;;23.17;15.32;;;14.50;99.90;;;;;;5080514;28;20388;-83
2022/04/26 09:49:19;;;;;;;;;;;15.50;99.90;;;;;;5062364;28;20025;-83
2022/04/26 09:51:46;;;;;;;21.33;14.55;;;16.00;99.90;;;;;;5060433;28;19905;-86
2022/04/26 09:54:12;;;;;;;21.20;15.20;;;16.10;99.90;;;;;;5060526;28;20025;-81
2022/04/26 09:56:39;;;;;;;22.63;16.70;;;16.20;99.90;;;;;;5060196;28;20388;-83
2022/04/26 09:59:05;;;;;;;25.40;17.10;;;15.90;99.90;;;;;;5078851;28;20024;-83
2022/04/26 10:01:47;;;;;;;21.92;15.27;;;16.00;99.90;;;;;;5079194;28;20029;-84
2022/04/26 10:04:17;;;;;;;24.77;14.63;;;15.90;99.90;;;;;;5059874;28;20064;-84
2022/04/26 10:06:49;;;;;;;23.88;16.60;;;15.60;99.90;;;;;;5078614;28;20492;-84
2022/04/26 10:09:16;;;;;;;20.40;15.45;;;15.50;99.90;;;;;;5075280;28;20047;-83
2022/04/26 10:11:42;;;;;;;20.00;13.80;;;15.60;99.90;;;;;;5058521;28;20029;-82
2022/04/26 10:14:10;;;;;;;22.40;15.02;;;15.60;99.90;;;;;;5039697;28;20040;-84
2022/04/26 10:16:37;;;;;;;21.77;14.60;;;15.90;99.90;;;;;;5059033;28;20100;-84
2022/04/26 10:19:12;;;;;;;22.05;15.77;;;16.20;99.90;;;;;;5040881;28;20104;-85
2022/04/26 10:21:40;;;;;;;21.80;14.52;;;16.00;99.90;;;;;;5059168;28;20032;-83
2022/04/26 10:24:13;;;;;;;25.25;14.85;;;16.10;99.90;;;;;;5058736;28;20032;-83
2022/04/26 10:26:39;;;;;;;22.20;14.88;;;16.40;99.90;;;;;;5057950;28;20021;-82
2022/04/26 10:29:08;;;;;;;21.38;14.57;;;16.60;99.90;;;;;;5058727;28;20049;-82
2022/04/26 10:32:06;;;;;;;17.58;14.73;;;16.50;99.90;;;;;;5058679;28;20457;-82
2022/04/26 10:34:33;;;;;;;20.95;14.65;;;16.50;99.90;;;;;;5058824;28;20455;-82
2022/04/26 10:37:09;;;;;;;20.23;14.00;;;16.60;99.90;;;;;;5040111;28;20032;-83
2022/04/26 10:39:38;;;;;;;22.75;14.60;;;17.00;99.90;;;;;;5058659;28;20021;-81
2022/04/26 10:42:16;;;;;;;16.95;14.07;;;17.20;99.90;;;;;;5039789;28;20480;-84
2022/04/26 10:44:45;;;;;;;21.75;14.65;;;17.20;99.90;;;;;;5041061;28;20489;-85
2022/04/26 10:47:18;;;;;;;24.10;16.17;;;16.80;99.90;;;;;;5058009;28;20064;-81
2022/04/26 10:49:48;;;;;;;20.58;15.25;;;16.70;99.90;;;;;;5056968;28;20021;-85
2022/04/26 10:55:03;;;;;;;19.92;14.80;;;17.00;99.90;;;;;;5064593;28;20029;-86
2022/04/26 10:57:36;;;;;;;21.55;16.65;;;17.00;99.90;;;;;;5067463;28;20013;-84
2022/04/26 11:00:08;;;;;;;22.77;15.63;;;16.80;99.90;;;;;;5067069;28;20109;-85
2022/04/26 11:02:36;;;;;;;21.30;15.45;;;16.80;99.90;;;;;;5048928;28;20021;-82
2022/04/26 11:05:10;;;;;;;19.33;15.20;;;17.30;99.90;;;;;;5049044;28;20048;-82
2022/04/26 11:07:38;;;;;;;17.15;13.55;;;17.50;99.90;;;;;;5064715;28;20029;-83
2022/04/26 11:10:05;;;;;;;19.83;13.98;;;17.60;99.50;;;;;;5072776;28;20028;-84
2022/04/26 11:12:33;;;;;;;18.60;13.25;;;17.90;99.90;;;;;;5079391;28;20024;-84
2022/04/26 11:15:14;;;;;;;18.40;13.35;;;18.00;97.80;;;;;;5061019;28;20478;-83
2022/04/26 11:17:41;;;;;;;19.10;14.13;;;18.20;95.50;;;;;;5061875;28;20421;-84
2022/04/26 11:20:16;;;;;;;15.65;12.98;;;18.40;94.70;;;;;;5061696;28;20109;-84
2022/04/26 11:22:56;;;;;;;18.85;14.93;;;18.20;93.50;;;;;;5079895;28;20028;-82
2022/04/26 11:28:12;;;;;;;18.25;12.70;;;18.90;91.60;;;;;;5081240;28;20048;-85
2022/04/26 11:30:55;;;;;;;18.10;13.07;;;19.20;86.10;;;;;;5081718;28;20035;-86
2022/04/26 11:33:22;;;;;;;18.27;12.70;;;19.40;84.00;;;;;;5080188;28;20432;-84
2022/04/26 11:36:08;;;;;;;15.93;12.18;;;19.20;82.10;;;;;;5080308;28;20089;-85
2022/04/26 11:38:33;;;;;;;17.30;12.63;;;19.00;81.90;;;;;;5081113;28;20021;-85
2022/04/26 11:41:01;;;;;;;14.10;11.82;;;19.30;79.80;;;;;;5080798;28;20376;-83
2022/04/26 11:43:33;;;;;;;13.65;10.85;;;19.30;78.10;;;;;;5079834;28;20039;-82
2022/04/26 11:45:59;;;;;;;15.70;12.10;;;19.10;76.70;;;;;;5080264;28;20028;-84
2022/04/26 11:48:29;;;;;;;15.52;11.95;;;19.30;74.80;;;;;;5080160;28;20059;-84
2022/04/26 11:50:57;;;;;;;13.45;10.57;;;19.60;74.50;;;;;;5080692;28;20031;-82
2022/04/26 11:53:25;;;;;;;14.45;12.20;;;19.90;74.90;;;;;;5081501;28;20071;-85
2022/04/26 11:55:58;;;;;;;14.73;11.00;;;20.30;74.00;;;;;;5080920;28;20120;-84
2022/04/26 11:58:27;;;;;;;18.08;13.10;;;20.70;73.80;;;;;;5063944;28;20028;-84
2022/04/26 12:01:02;;;;;;;17.88;13.52;;;20.80;72.70;;;;;;5083035;28;20025;-87
2022/04/26 12:03:54;;;;;;;17.45;13.77;;;19.70;74.50;;;;;;5079354;28;20035;-83
2022/04/26 12:06:35;;;;;;;17.58;13.18;;;18.40;80.00;;;;;;5055907;28;20032;-84
2022/04/26 12:09:05;;;;;;;17.05;14.02;;;17.70;84.60;;;;;;5075466;28;20472;-85
2022/04/26 12:11:36;;;;;;;23.77;14.27;;;17.40;88.60;;;;;;5060123;28;20033;-86
2022/04/26 12:14:02;;;;;;;21.38;13.70;;;18.00;89.40;;;;;;5058738;28;20484;-83
2022/04/26 12:16:29;;;;;;;18.88;12.90;;;18.60;84.20;;;;;;5058692;28;20063;-81
2022/04/26 12:19:03;;;;;;;15.75;13.35;;;18.40;82.80;;;;;;5057879;28;20049;-86
2022/04/26 12:21:54;;;;;;;17.98;13.48;;;17.70;84.10;;;;;;5038794;28;20112;-86
2022/04/26 12:24:22;;;;;;;22.15;13.85;;;17.00;89.80;;;;;;5056841;28;20024;-82
2022/04/26 12:27:03;;;;;;;17.85;14.18;;;16.40;91.80;;;;;;5059384;28;20519;-82
2022/04/26 12:29:31;;;;;;;21.83;14.27;;;16.10;97.00;;;;;;5059896;28;20036;-86
2022/04/26 12:31:58;;;;;;;22.65;15.55;;;15.70;99.90;;;;;;5058877;28;20048;-83
2022/04/26 12:34:31;;;;;;;27.63;15.85;;;15.40;99.90;;;;;;5041090;28;20396;-84
2022/04/26 12:37:08;;;;;;;19.95;15.90;;;15.10;99.90;;;;;;5059289;28;20021;-84
2022/04/26 12:39:44;;;;;;;20.27;14.63;;;14.80;99.90;;;;;;5040371;28;20032;-86
2022/04/26 12:42:15;;;;;;;24.70;17.45;;;14.60;99.90;;;;;;5058632;28;20021;-81
2022/04/26 12:44:55;;;;;;;20.50;15.38;;;14.40;99.90;;;;;;5058409;28;20033;-81
2022/04/26 12:50:33;;;;;;;22.58;16.02;;;14.30;99.90;;;;;;5059813;28;20064;-83
2022/04/26 12:53:20;;;;;;;21.55;15.23;;;14.40;99.90;;;;;;5059174;28;20021;-83
2022/04/26 12:55:46;;;;;;;22.75;16.35;;;14.50;99.90;;;;;;5058697;28;20025;-82
2022/04/26 12:58:17;;;;;;;23.88;15.77;;;14.60;99.90;;;;;;5040759;28;20054;-82
2022/04/26 13:00:46;;;;;;;19.88;14.10;;;14.70;99.90;;;;;;5059225;28;20354;-82
2022/04/26 13:03:14;;;;;;;16.48;11.13;;;14.80;99.90;;;;;;5059503;28;20048;-83
2022/04/26 13:05:46;;;;;;;20.40;12.73;;;14.60;99.90;;;;;;5059340;28;20033;-84
2022/04/26 13:08:16;;;;;;;19.52;13.80;;;14.50;99.90;;;;;;5060392;28;20108;-82
2022/04/26 13:10:42;;;;;;;16.95;12.45;;;14.40;99.90;;;;;;5057617;28;20028;-81
2022/04/26 13:13:09;;;;;;;16.75;12.65;;;14.00;99.90;;;;;;5083789;28;20043;-83
2022/04/26 13:15:35;;;;;;;14.65;12.18;;;13.60;99.90;;;;;;5067296;28;20020;-84
2022/04/26 13:18:01;;;;;;;16.85;10.98;;;13.20;99.90;;;;;;5079593;28;20031;-84
2022/04/26 13:20:27;;;;;;;14.15;10.70;;;13.00;99.90;;;;;;5061428;28;20021;-84
2022/04/26 13:22:53;;;;;;;13.55;11.05;;;12.90;99.90;;;;;;5081124;28;20020;-84
2022/04/26 13:25:19;;;;;;;18.25;11.52;;;12.80;99.90;;;;;;5081302;28;20035;-85
2022/04/26 13:27:46;;;;;;;14.70;10.55;;;12.80;99.90;;;;;;5063446;28;20074;-83
2022/04/26 13:30:12;;;;;;;15.80;10.45;;;12.70;99.90;;;;;;5062663;28;20028;-84
2022/04/26 13:32:38;;;;;;;12.73;9.68;;;12.70;99.90;;;;;;5063023;28;20052;-85
2022/04/26 13:35:05;;;;;;;13.23;10.15;;;12.70;99.90;;;;;;5080835;28;20361;-82
2022/04/26 13:37:36;;;;;;;17.02;11.10;;;12.60;99.90;;;;;;5082343;28;20016;-83
2022/04/26 13:40:03;;;;;;;13.98;10.07;;;12.70;99.90;;;;;;5080982;28;20021;-84
2022/04/26 13:42:30;;;;;;;13.13;10.30;;;12.70;99.90;;;;;;5080377;28;20059;-84
2022/04/26 13:44:58;;;;;;;13.25;10.35;;;12.80;99.90;;;;;;5079024;28;20017;-82
2022/04/26 13:47:23;;;;;;;14.23;10.48;;;12.90;99.90;;;;;;5079762;28;20024;-84
2022/04/26 13:49:50;;;;;;;14.82;11.52;;;13.10;99.90;;;;;;5080253;28;20024;-83
2022/04/26 13:52:16;;;;;;;16.48;12.25;;;13.20;99.90;;;;;;5062058;28;20392;-83
2022/04/26 13:54:42;;;;;;;15.55;12.52;;;13.40;99.90;;;;;;5061872;28;20025;-85
2022/04/26 13:57:09;;;;;;;13.88;12.18;;;13.40;99.90;;;;;;5080536;28;20104;-85
2022/04/26 13:59:35;;;;;;;15.82;11.85;;;13.60;99.90;;;;;;5080306;28;20434;-83
2022/04/26 14:02:03;;;;;;;15.18;12.85;;;13.70;99.90;;;;;;5087091;28;20039;-78
2022/04/26 14:04:28;;;;;;;19.63;13.52;;;13.90;99.90;;;;;;5077339;28;20037;-78
2022/04/26 14:06:54;;;;;;;17.65;12.70;;;14.10;99.90;;;;;;5077649;28;20075;-81
2022/04/26 14:09:21;;;;;;;18.55;14.13;;;14.30;99.90;;;;;;5081616;28;20032;-84
2022/04/26 14:11:48;;;;;;;18.98;15.43;;;14.40;99.90;;;;;;5059273;28;20032;-82
2022/04/26 14:22:32;;;;;;;20.90;16.30;;;14.10;99.90;;;;;;5058967;28;20088;-85
2022/04/26 14:25:04;;;;;;;23.40;19.73;;;14.00;99.90;;;;;;5058593;28;20027;-86
2022/04/26 14:27:30;;;;;;;35.22;27.17;;;13.90;99.90;;;;;;5059234;28;20028;-85
2022/04/26 14:29:57;;;;;;;52.58;42.38;;;13.90;99.90;;;;;;5063034;28;20027;-85
2022/04/26 14:32:22;;;;;;;35.20;27.60;;;13.80;99.90;;;;;;5063244;28;20087;-84
2022/04/26 14:34:48;;;;;;;31.63;25.92;;;13.70;99.90;;;;;;5063892;28;20025;-83
2022/04/26 14:37:15;;;;;;;29.38;21.13;;;13.70;99.90;;;;;;5046845;28;20380;-85
2022/04/26 14:39:41;;;;;;;45.95;37.13;;;13.60;99.90;;;;;;5046157;28;20040;-85
2022/04/26 14:42:08;;;;;;;31.60;25.15;;;13.50;99.90;;;;;;5063113;28;20025;-84
2022/04/26 14:44:37;;;;;;;29.10;20.52;;;13.40;99.90;;;;;;5043332;28;20021;-83
2022/04/26 14:47:03;;;;;;;24.55;18.10;;;13.40;99.90;;;;;;5062591;28;20032;-82
2022/04/26 14:49:30;;;;;;;15.25;12.05;;;13.20;99.90;;;;;;5043439;28;20119;-84
2022/04/26 14:51:56;;;;;;;12.63;9.38;;;12.80;99.90;;;;;;5060736;28;20031;-81
2022/04/26 14:54:22;;;;;;;11.68;8.50;;;12.30;99.90;;;;;;5042138;28;20029;-83
2022/04/26 14:56:48;;;;;;;10.23;8.57;;;12.00;99.90;;;;;;5061957;28;20032;-82
2022/04/26 14:59:15;;;;;;;9.02;7.20;;;11.70;99.90;;;;;;5043152;28;20016;-82
2022/04/26 15:01:46;;;;;;;9.63;6.88;;;11.50;99.90;;;;;;5061786;28;20020;-84
2022/04/26 15:04:12;;;;;;;10.13;6.65;;;11.20;99.90;;;;;;5061504;28;20048;-82
2022/04/26 15:06:38;;;;;;;10.38;7.60;;;10.90;99.90;;;;;;5041022;28;20029;-84
2022/04/26 15:16:37;;;;;;;15.52;8.30;;;10.40;99.90;;;;;;5079508;28;20044;-83
2022/04/26 15:17:19;;;;;;;12.27;8.77;;;10.20;99.90;;;;;;5078984;28;20044;-82
2022/04/26 15:19:50;;;;;;;11.60;7.50;;;10.20;99.90;;;;;;5080057;28;20024;-84
2022/04/26 15:22:19;;;;;;;10.20;7.50;;;10.30;99.90;;;;;;5063094;28;20016;-84
2022/04/26 15:24:51;;;;;;;12.73;8.70;;;10.30;99.90;;;;;;5062252;28;20056;-83
2022/04/26 15:27:18;;;;;;;9.65;7.82;;;10.30;99.90;;;;;;5066891;28;20036;-85
2022/04/26 15:29:45;;;;;;;8.25;7.40;;;10.40;99.90;;;;;;5073195;28;20397;-83
2022/04/26 15:32:12;;;;;;;10.95;7.15;;;10.50;99.90;;;;;;5062104;28;20110;-81
2022/04/26 15:34:39;;;;;;;10.40;7.78;;;10.50;99.90;;;;;;5078651;28;20103;-81
2022/04/26 15:37:07;;;;;;;9.55;7.88;;;10.50;99.90;;;;;;5060053;28;20025;-82
2022/04/26 15:39:34;;;;;;;9.55;8.15;;;10.40;99.90;;;;;;5060361;28;20046;-82
2022/04/26 15:42:00;;;;;;;9.85;7.90;;;10.50;99.90;;;;;;5061232;28;20027;-83
2022/04/26 15:44:26;;;;;;;10.77;7.53;;;10.50;99.90;;;;;;5061951;28;20020;-83
2022/04/26 15:46:56;;;;;;;10.73;8.00;;;10.60;99.90;;;;;;5061617;28;20036;-83
2022/04/26 15:49:23;;;;;;;11.20;8.30;;;10.50;99.90;;;;;;5079729;28;20028;-83
2022/04/26 15:51:49;;;;;;;13.15;7.35;;;10.60;99.90;;;;;;5078737;28;20024;-83
2022/04/26 15:54:16;;;;;;;11.60;7.22;;;10.60;99.90;;;;;;5078479;28;20024;-83
2022/04/26 15:56:42;;;;;;;10.43;7.50;;;10.60;99.90;;;;;;5061901;28;20232;-81
2022/04/26 15:59:08;;;;;;;9.30;7.10;;;10.60;99.90;;;;;;5061842;28;20373;-84
2022/04/26 16:01:36;;;;;;;19.92;9.05;;;10.70;99.90;;;;;;5078353;28;20074;-81
2022/04/26 16:04:02;;;;;;;11.43;8.80;;;10.70;99.90;;;;;;5087933;28;20081;-82
2022/04/26 16:06:29;;;;;;;13.52;8.18;;;10.60;99.90;;;;;;5088032;28;20025;-83
2022/04/26 16:20:28;;;;;;;12.93;9.10;;;10.60;99.90;;;;;;5065133;28;20020;-83
2022/04/26 16:22:39;;;;;;;10.68;8.55;;;10.80;99.90;;;;;;5057776;28;20032;-81
2022/04/26 16:25:06;;;;;;;12.88;10.57;;;10.80;99.90;;;;;;5056958;28;20028;-81
2022/04/26 16:27:32;;;;;;;13.32;11.73;;;10.80;99.90;;;;;;5039825;28;20052;-82
2022/04/26 16:30:00;;;;;;;14.88;11.35;;;10.80;99.90;;;;;;5057612;28;20108;-81
2022/04/26 16:32:29;;;;;;;13.80;11.38;;;10.90;99.90;;;;;;5058396;28;20028;-81
2022/04/26 16:34:57;;;;;;;14.45;12.45;;;10.90;99.90;;;;;;5056624;28;20017;-81
2022/04/26 16:37:24;;;;;;;20.10;13.48;;;10.90;99.90;;;;;;5039562;28;20017;-82
2022/04/26 16:39:51;;;;;;;17.95;13.30;;;11.00;99.90;;;;;;5039439;28;20024;-80
2022/04/26 16:42:18;;;;;;;23.77;14.48;;;11.00;99.90;;;;;;5058528;28;20077;-82
2022/04/26 16:44:44;;;;;;;20.42;15.63;;;10.90;99.90;;;;;;5057194;28;20025;-82
2022/04/26 16:47:10;;;;;;;22.60;14.65;;;10.90;99.90;;;;;;5039618;28;20028;-82
2022/04/26 16:49:36;;;;;;;17.98;13.77;;;10.90;99.90;;;;;;5057660;28;20037;-84
2022/04/26 16:52:04;;;;;;;18.17;13.80;;;10.90;99.90;;;;;;5057125;28;20108;-84
2022/04/26 16:54:30;;;;;;;20.98;15.40;;;10.90;99.90;;;;;;5039057;28;20504;-83
2022/04/26 16:56:56;;;;;;;20.05;14.27;;;10.90;99.90;;;;;;5039510;28;20143;-82
2022/04/26 16:59:23;;;;;;;15.80;12.80;;;10.90;99.90;;;;;;5058152;28;20025;-82
2022/04/26 17:01:49;;;;;;;22.40;14.80;;;11.00;99.90;;;;;;5057591;28;20028;-81